sensor_id;sensor_type;location;lat;lon;timestamp;P1;durP1;ratioP1;P2;durP2;ratioP2
18449;SDS011;9354;50.194;7.690;2022-12-07T00:01:54;14.23;;;5.80;;
18449;SDS011;9354;50.194;7.690;2022-12-07T00:04:21;15.83;;;6.00;;
18449;SDS011;9354;50.194;7.690;2022-12-07T00:06:51;11.83;;;6.00;;
18449;SDS011;9354;50.194;7.690;2022-12-07T00:09:19;15.97;;;6.20;;
18449;SDS011;9354;50.194;7.690;2022-12-07T00:11:48;15.27;;;5.70;;
18449;SDS011;9354;50.194;7.690;2022-12-07T00:14:17;17.67;;;6.63;;
18449;SDS011;9354;50.194;7.690;2022-12-07T00:16:45;16.50;;;6.10;;
18449;SDS011;9354;50.194;7.690;2022-12-07T00:19:13;14.50;;;5.40;;
18449;SDS011;9354;50.194;7.690;2022-12-07T00:21:41;10.90;;;5.60;;
18449;SDS011;9354;50.194;7.690;2022-12-07T00:24:11;13.00;;;5.07;;
18449;SDS011;9354;50.194;7.690;2022-12-07T00:26:39;12.87;;;5.00;;
18449;SDS011;9354;50.194;7.690;2022-12-07T00:29:12;12.40;;;4.77;;
18449;SDS011;9354;50.194;7.690;2022-12-07T00:31:42;12.40;;;5.13;;
18449;SDS011;9354;50.194;7.690;2022-12-07T00:34:11;11.27;;;5.00;;
18449;SDS011;9354;50.194;7.690;2022-12-07T00:36:40;9.57;;;4.70;;
18449;SDS011;9354;50.194;7.690;2022-12-07T00:39:07;9.47;;;4.37;;
18449;SDS011;9354;50.194;7.690;2022-12-07T00:41:36;8.53;;;4.20;;
18449;SDS011;9354;50.194;7.690;2022-12-07T00:44:04;9.00;;;4.07;;
18449;SDS011;9354;50.194;7.690;2022-12-07T00:46:31;7.97;;;4.43;;
18449;SDS011;9354;50.194;7.690;2022-12-07T00:48:58;8.43;;;4.47;;
18449;SDS011;9354;50.194;7.690;2022-12-07T00:51:26;10.53;;;4.70;;
18449;SDS011;9354;50.194;7.690;2022-12-07T00:53:53;13.37;;;4.90;;
18449;SDS011;9354;50.194;7.690;2022-12-07T00:56:22;9.43;;;4.33;;
18449;SDS011;9354;50.194;7.690;2022-12-07T00:58:53;12.80;;;5.63;;
18449;SDS011;9354;50.194;7.690;2022-12-07T01:01:22;14.17;;;5.27;;
18449;SDS011;9354;50.194;7.690;2022-12-07T01:03:50;13.30;;;5.23;;
18449;SDS011;9354;50.194;7.690;2022-12-07T01:06:18;16.30;;;6.77;;
18449;SDS011;9354;50.194;7.690;2022-12-07T01:08:47;13.70;;;6.63;;
18449;SDS011;9354;50.194;7.690;2022-12-07T01:11:16;15.90;;;6.70;;
18449;SDS011;9354;50.194;7.690;2022-12-07T01:13:45;15.80;;;6.67;;
18449;SDS011;9354;50.194;7.690;2022-12-07T01:16:14;17.37;;;6.73;;
18449;SDS011;9354;50.194;7.690;2022-12-07T01:18:45;18.73;;;7.20;;
18449;SDS011;9354;50.194;7.690;2022-12-07T01:21:14;16.17;;;6.70;;
18449;SDS011;9354;50.194;7.690;2022-12-07T01:23:43;19.60;;;7.43;;
18449;SDS011;9354;50.194;7.690;2022-12-07T01:26:12;16.20;;;6.80;;
18449;SDS011;9354;50.194;7.690;2022-12-07T01:28:41;17.13;;;7.73;;
18449;SDS011;9354;50.194;7.690;2022-12-07T01:31:09;16.90;;;7.50;;
18449;SDS011;9354;50.194;7.690;2022-12-07T01:33:42;18.47;;;7.93;;
18449;SDS011;9354;50.194;7.690;2022-12-07T01:36:12;16.73;;;6.97;;
18449;SDS011;9354;50.194;7.690;2022-12-07T01:38:41;16.83;;;7.47;;
18449;SDS011;9354;50.194;7.690;2022-12-07T01:41:09;18.23;;;7.93;;
18449;SDS011;9354;50.194;7.690;2022-12-07T01:43:36;17.80;;;8.53;;
18449;SDS011;9354;50.194;7.690;2022-12-07T01:46:28;18.63;;;8.47;;
18449;SDS011;9354;50.194;7.690;2022-12-07T01:48:57;16.77;;;7.17;;
18449;SDS011;9354;50.194;7.690;2022-12-07T01:51:25;19.40;;;8.23;;
18449;SDS011;9354;50.194;7.690;2022-12-07T01:53:53;15.43;;;7.70;;
18449;SDS011;9354;50.194;7.690;2022-12-07T01:56:23;19.70;;;8.00;;
18449;SDS011;9354;50.194;7.690;2022-12-07T01:58:53;17.30;;;7.97;;
18449;SDS011;9354;50.194;7.690;2022-12-07T02:01:23;18.53;;;8.00;;
18449;SDS011;9354;50.194;7.690;2022-12-07T02:03:50;17.93;;;8.03;;
18449;SDS011;9354;50.194;7.690;2022-12-07T02:06:21;24.37;;;8.53;;
18449;SDS011;9354;50.194;7.690;2022-12-07T02:08:51;18.17;;;8.13;;
18449;SDS011;9354;50.194;7.690;2022-12-07T02:11:18;20.80;;;9.03;;
18449;SDS011;9354;50.194;7.690;2022-12-07T02:13:47;22.80;;;9.20;;
18449;SDS011;9354;50.194;7.690;2022-12-07T02:16:18;17.80;;;8.83;;
18449;SDS011;9354;50.194;7.690;2022-12-07T02:18:55;17.87;;;8.73;;
18449;SDS011;9354;50.194;7.690;2022-12-07T02:21:36;18.83;;;8.90;;
18449;SDS011;9354;50.194;7.690;2022-12-07T02:24:23;22.13;;;9.33;;
18449;SDS011;9354;50.194;7.690;2022-12-07T02:30:04;24.20;;;9.17;;
18449;SDS011;9354;50.194;7.690;2022-12-07T02:32:39;23.17;;;9.80;;
18449;SDS011;9354;50.194;7.690;2022-12-07T02:35:11;20.60;;;9.23;;
18449;SDS011;9354;50.194;7.690;2022-12-07T02:37:47;19.13;;;8.70;;
18449;SDS011;9354;50.194;7.690;2022-12-07T02:40:21;21.93;;;9.70;;
18449;SDS011;9354;50.194;7.690;2022-12-07T02:42:53;22.87;;;9.77;;
18449;SDS011;9354;50.194;7.690;2022-12-07T02:45:27;22.73;;;10.07;;
18449;SDS011;9354;50.194;7.690;2022-12-07T02:47:58;21.57;;;9.10;;
18449;SDS011;9354;50.194;7.690;2022-12-07T02:50:27;25.00;;;10.30;;
18449;SDS011;9354;50.194;7.690;2022-12-07T02:52:55;21.87;;;9.57;;
18449;SDS011;9354;50.194;7.690;2022-12-07T02:55:24;19.67;;;9.13;;
18449;SDS011;9354;50.194;7.690;2022-12-07T02:58:00;20.87;;;9.33;;
18449;SDS011;9354;50.194;7.690;2022-12-07T03:00:51;24.63;;;10.13;;
18449;SDS011;9354;50.194;7.690;2022-12-07T03:03:24;23.27;;;10.47;;
18449;SDS011;9354;50.194;7.690;2022-12-07T03:05:54;23.73;;;10.20;;
18449;SDS011;9354;50.194;7.690;2022-12-07T03:08:43;19.27;;;9.30;;
18449;SDS011;9354;50.194;7.690;2022-12-07T03:11:20;20.10;;;10.23;;
18449;SDS011;9354;50.194;7.690;2022-12-07T03:13:54;25.83;;;8.90;;
18449;SDS011;9354;50.194;7.690;2022-12-07T03:16:28;22.80;;;9.80;;
18449;SDS011;9354;50.194;7.690;2022-12-07T03:19:00;19.00;;;8.70;;
18449;SDS011;9354;50.194;7.690;2022-12-07T03:21:31;21.67;;;9.60;;
18449;SDS011;9354;50.194;7.690;2022-12-07T03:24:03;20.10;;;8.90;;
18449;SDS011;9354;50.194;7.690;2022-12-07T03:26:36;21.93;;;8.87;;
18449;SDS011;9354;50.194;7.690;2022-12-07T03:29:09;21.87;;;8.93;;
18449;SDS011;9354;50.194;7.690;2022-12-07T03:31:45;19.67;;;8.33;;
18449;SDS011;9354;50.194;7.690;2022-12-07T03:34:18;19.63;;;8.67;;
18449;SDS011;9354;50.194;7.690;2022-12-07T03:36:53;22.47;;;8.47;;
18449;SDS011;9354;50.194;7.690;2022-12-07T03:39:24;21.37;;;8.77;;
18449;SDS011;9354;50.194;7.690;2022-12-07T03:41:56;17.93;;;8.43;;
18449;SDS011;9354;50.194;7.690;2022-12-07T03:44:27;20.50;;;8.63;;
18449;SDS011;9354;50.194;7.690;2022-12-07T03:46:59;18.93;;;8.40;;
18449;SDS011;9354;50.194;7.690;2022-12-07T03:49:31;21.43;;;9.17;;
18449;SDS011;9354;50.194;7.690;2022-12-07T03:52:08;19.10;;;8.37;;
18449;SDS011;9354;50.194;7.690;2022-12-07T03:54:44;18.67;;;8.77;;
18449;SDS011;9354;50.194;7.690;2022-12-07T03:57:15;21.20;;;8.53;;
18449;SDS011;9354;50.194;7.690;2022-12-07T03:59:44;19.50;;;8.17;;
18449;SDS011;9354;50.194;7.690;2022-12-07T04:02:14;16.33;;;8.13;;
18449;SDS011;9354;50.194;7.690;2022-12-07T04:04:42;19.17;;;8.30;;
18449;SDS011;9354;50.194;7.690;2022-12-07T04:07:10;18.20;;;8.00;;
18449;SDS011;9354;50.194;7.690;2022-12-07T04:09:38;18.20;;;8.33;;
18449;SDS011;9354;50.194;7.690;2022-12-07T04:12:06;20.43;;;8.57;;
18449;SDS011;9354;50.194;7.690;2022-12-07T04:14:34;16.20;;;7.50;;
18449;SDS011;9354;50.194;7.690;2022-12-07T04:17:01;19.63;;;8.13;;
18449;SDS011;9354;50.194;7.690;2022-12-07T04:19:31;18.30;;;7.50;;
18449;SDS011;9354;50.194;7.690;2022-12-07T04:22:00;16.47;;;7.80;;
18449;SDS011;9354;50.194;7.690;2022-12-07T04:24:28;16.67;;;7.37;;
18449;SDS011;9354;50.194;7.690;2022-12-07T04:26:55;16.33;;;7.50;;
18449;SDS011;9354;50.194;7.690;2022-12-07T04:29:23;17.97;;;8.07;;
18449;SDS011;9354;50.194;7.690;2022-12-07T04:31:51;16.93;;;7.77;;
18449;SDS011;9354;50.194;7.690;2022-12-07T04:34:18;18.77;;;7.93;;
18449;SDS011;9354;50.194;7.690;2022-12-07T04:36:47;16.57;;;7.80;;
18449;SDS011;9354;50.194;7.690;2022-12-07T04:39:18;20.73;;;7.13;;
18449;SDS011;9354;50.194;7.690;2022-12-07T04:41:47;18.83;;;7.43;;
18449;SDS011;9354;50.194;7.690;2022-12-07T04:44:15;15.20;;;7.03;;
18449;SDS011;9354;50.194;7.690;2022-12-07T04:46:43;15.17;;;7.10;;
18449;SDS011;9354;50.194;7.690;2022-12-07T04:49:11;18.57;;;7.63;;
18449;SDS011;9354;50.194;7.690;2022-12-07T04:51:39;19.03;;;8.13;;
18449;SDS011;9354;50.194;7.690;2022-12-07T04:54:07;17.00;;;8.67;;
18449;SDS011;9354;50.194;7.690;2022-12-07T04:56:35;18.40;;;8.50;;
18449;SDS011;9354;50.194;7.690;2022-12-07T04:59:02;17.37;;;8.03;;
18449;SDS011;9354;50.194;7.690;2022-12-07T05:01:30;17.10;;;7.87;;
18449;SDS011;9354;50.194;7.690;2022-12-07T05:03:58;22.40;;;8.40;;
18449;SDS011;9354;50.194;7.690;2022-12-07T05:06:26;16.67;;;7.87;;
18449;SDS011;9354;50.194;7.690;2022-12-07T05:08:53;16.47;;;8.07;;
18449;SDS011;9354;50.194;7.690;2022-12-07T05:11:22;21.60;;;8.13;;
18449;SDS011;9354;50.194;7.690;2022-12-07T05:14:05;12.97;;;6.47;;
18449;SDS011;9354;50.194;7.690;2022-12-07T05:16:34;19.60;;;8.53;;
18449;SDS011;9354;50.194;7.690;2022-12-07T05:19:02;23.57;;;8.63;;
18449;SDS011;9354;50.194;7.690;2022-12-07T05:21:29;18.70;;;8.90;;
18449;SDS011;9354;50.194;7.690;2022-12-07T05:23:56;20.37;;;9.13;;
18449;SDS011;9354;50.194;7.690;2022-12-07T05:26:25;18.80;;;8.60;;
18449;SDS011;9354;50.194;7.690;2022-12-07T05:28:53;20.53;;;8.10;;
18449;SDS011;9354;50.194;7.690;2022-12-07T05:31:22;23.97;;;8.47;;
18449;SDS011;9354;50.194;7.690;2022-12-07T05:33:50;19.90;;;8.77;;
18449;SDS011;9354;50.194;7.690;2022-12-07T05:36:18;21.57;;;8.53;;
18449;SDS011;9354;50.194;7.690;2022-12-07T05:38:46;19.47;;;8.60;;
18449;SDS011;9354;50.194;7.690;2022-12-07T05:41:14;16.33;;;7.67;;
18449;SDS011;9354;50.194;7.690;2022-12-07T05:44:02;17.43;;;7.20;;
18449;SDS011;9354;50.194;7.690;2022-12-07T05:46:29;18.80;;;8.40;;
18449;SDS011;9354;50.194;7.690;2022-12-07T05:48:57;17.53;;;7.47;;
18449;SDS011;9354;50.194;7.690;2022-12-07T05:51:24;16.87;;;7.90;;
18449;SDS011;9354;50.194;7.690;2022-12-07T05:53:52;17.00;;;7.30;;
18449;SDS011;9354;50.194;7.690;2022-12-07T05:56:19;15.03;;;6.73;;
18449;SDS011;9354;50.194;7.690;2022-12-07T05:58:46;15.93;;;6.97;;
18449;SDS011;9354;50.194;7.690;2022-12-07T06:01:32;17.07;;;6.93;;
18449;SDS011;9354;50.194;7.690;2022-12-07T06:04:00;18.27;;;8.13;;
18449;SDS011;9354;50.194;7.690;2022-12-07T06:06:27;14.93;;;6.97;;
18449;SDS011;9354;50.194;7.690;2022-12-07T06:08:55;17.33;;;7.97;;
18449;SDS011;9354;50.194;7.690;2022-12-07T06:11:22;19.43;;;7.23;;
18449;SDS011;9354;50.194;7.690;2022-12-07T06:14:07;14.97;;;7.03;;
18449;SDS011;9354;50.194;7.690;2022-12-07T06:16:36;18.87;;;8.50;;
18449;SDS011;9354;50.194;7.690;2022-12-07T06:19:03;17.37;;;7.90;;
18449;SDS011;9354;50.194;7.690;2022-12-07T06:21:30;26.90;;;8.50;;
18449;SDS011;9354;50.194;7.690;2022-12-07T06:23:58;15.17;;;7.20;;
18449;SDS011;9354;50.194;7.690;2022-12-07T06:26:25;18.90;;;8.20;;
18449;SDS011;9354;50.194;7.690;2022-12-07T06:28:53;21.57;;;7.87;;
18449;SDS011;9354;50.194;7.690;2022-12-07T06:31:20;19.10;;;8.27;;
18449;SDS011;9354;50.194;7.690;2022-12-07T06:33:49;17.83;;;7.70;;
18449;SDS011;9354;50.194;7.690;2022-12-07T06:36:16;15.90;;;7.93;;
18449;SDS011;9354;50.194;7.690;2022-12-07T06:38:43;17.83;;;7.63;;
18449;SDS011;9354;50.194;7.690;2022-12-07T06:41:11;17.97;;;7.77;;
18449;SDS011;9354;50.194;7.690;2022-12-07T06:43:38;22.23;;;9.13;;
18449;SDS011;9354;50.194;7.690;2022-12-07T06:46:06;16.93;;;7.93;;
18449;SDS011;9354;50.194;7.690;2022-12-07T06:48:33;21.30;;;9.87;;
18449;SDS011;9354;50.194;7.690;2022-12-07T06:51:02;20.50;;;8.57;;
18449;SDS011;9354;50.194;7.690;2022-12-07T06:53:30;23.27;;;8.90;;
18449;SDS011;9354;50.194;7.690;2022-12-07T06:55:57;19.03;;;8.83;;
18449;SDS011;9354;50.194;7.690;2022-12-07T06:58:24;26.73;;;9.33;;
18449;SDS011;9354;50.194;7.690;2022-12-07T07:00:52;19.67;;;8.57;;
18449;SDS011;9354;50.194;7.690;2022-12-07T07:03:19;19.53;;;8.47;;
18449;SDS011;9354;50.194;7.690;2022-12-07T07:05:47;16.63;;;7.53;;
18449;SDS011;9354;50.194;7.690;2022-12-07T07:08:16;24.17;;;9.00;;
18449;SDS011;9354;50.194;7.690;2022-12-07T07:10:43;27.30;;;8.50;;
18449;SDS011;9354;50.194;7.690;2022-12-07T07:13:11;24.17;;;8.50;;
18449;SDS011;9354;50.194;7.690;2022-12-07T07:15:38;16.60;;;7.47;;
18449;SDS011;9354;50.194;7.690;2022-12-07T07:18:05;16.53;;;6.90;;
18449;SDS011;9354;50.194;7.690;2022-12-07T07:20:33;20.17;;;8.23;;
18449;SDS011;9354;50.194;7.690;2022-12-07T07:23:00;17.27;;;7.77;;
18449;SDS011;9354;50.194;7.690;2022-12-07T07:25:29;23.67;;;9.43;;
18449;SDS011;9354;50.194;7.690;2022-12-07T07:27:56;18.30;;;7.97;;
18449;SDS011;9354;50.194;7.690;2022-12-07T07:30:24;17.90;;;8.20;;
18449;SDS011;9354;50.194;7.690;2022-12-07T07:32:55;18.20;;;7.50;;
18449;SDS011;9354;50.194;7.690;2022-12-07T07:35:23;18.67;;;7.27;;
18449;SDS011;9354;50.194;7.690;2022-12-07T07:37:50;15.43;;;7.67;;
18449;SDS011;9354;50.194;7.690;2022-12-07T07:40:17;19.70;;;7.90;;
18449;SDS011;9354;50.194;7.690;2022-12-07T07:42:48;16.30;;;7.40;;
18449;SDS011;9354;50.194;7.690;2022-12-07T07:45:16;15.37;;;7.27;;
18449;SDS011;9354;50.194;7.690;2022-12-07T07:47:44;21.57;;;8.00;;
18449;SDS011;9354;50.194;7.690;2022-12-07T07:50:11;16.83;;;7.17;;
18449;SDS011;9354;50.194;7.690;2022-12-07T07:52:38;17.57;;;7.30;;
18449;SDS011;9354;50.194;7.690;2022-12-07T07:55:06;17.50;;;7.20;;
18449;SDS011;9354;50.194;7.690;2022-12-07T07:57:34;26.47;;;9.63;;
18449;SDS011;9354;50.194;7.690;2022-12-07T08:00:04;25.83;;;9.97;;
18449;SDS011;9354;50.194;7.690;2022-12-07T08:02:33;13.47;;;6.60;;
18449;SDS011;9354;50.194;7.690;2022-12-07T08:05:00;12.17;;;6.43;;
18449;SDS011;9354;50.194;7.690;2022-12-07T08:07:28;13.47;;;6.13;;
18449;SDS011;9354;50.194;7.690;2022-12-07T08:09:56;15.07;;;6.17;;
18449;SDS011;9354;50.194;7.690;2022-12-07T08:12:23;15.37;;;6.47;;
18449;SDS011;9354;50.194;7.690;2022-12-07T08:14:50;16.73;;;7.80;;
18449;SDS011;9354;50.194;7.690;2022-12-07T08:17:19;18.10;;;6.80;;
18449;SDS011;9354;50.194;7.690;2022-12-07T08:19:46;13.93;;;6.30;;
18449;SDS011;9354;50.194;7.690;2022-12-07T08:22:14;11.93;;;5.63;;
18449;SDS011;9354;50.194;7.690;2022-12-07T08:24:41;15.93;;;6.43;;
18449;SDS011;9354;50.194;7.690;2022-12-07T08:27:08;26.93;;;10.40;;
18449;SDS011;9354;50.194;7.690;2022-12-07T08:29:36;10.70;;;5.27;;
18449;SDS011;9354;50.194;7.690;2022-12-07T08:32:03;13.53;;;5.90;;
18449;SDS011;9354;50.194;7.690;2022-12-07T08:34:32;12.33;;;5.63;;
18449;SDS011;9354;50.194;7.690;2022-12-07T08:36:59;13.10;;;5.50;;
18449;SDS011;9354;50.194;7.690;2022-12-07T08:39:27;15.67;;;5.67;;
18449;SDS011;9354;50.194;7.690;2022-12-07T08:41:54;15.57;;;5.43;;
18449;SDS011;9354;50.194;7.690;2022-12-07T08:44:21;19.20;;;6.80;;
18449;SDS011;9354;50.194;7.690;2022-12-07T08:46:49;17.00;;;7.10;;
18449;SDS011;9354;50.194;7.690;2022-12-07T08:49:21;18.43;;;8.47;;
18449;SDS011;9354;50.194;7.690;2022-12-07T08:51:52;13.77;;;6.60;;
18449;SDS011;9354;50.194;7.690;2022-12-07T08:54:21;11.93;;;4.63;;
18449;SDS011;9354;50.194;7.690;2022-12-07T08:56:48;10.03;;;4.80;;
18449;SDS011;9354;50.194;7.690;2022-12-07T08:59:17;14.93;;;5.27;;
18449;SDS011;9354;50.194;7.690;2022-12-07T09:01:47;11.57;;;4.80;;
18449;SDS011;9354;50.194;7.690;2022-12-07T09:04:14;12.27;;;4.63;;
18449;SDS011;9354;50.194;7.690;2022-12-07T09:06:42;11.23;;;3.87;;
18449;SDS011;9354;50.194;7.690;2022-12-07T09:09:10;10.67;;;4.33;;
18449;SDS011;9354;50.194;7.690;2022-12-07T09:11:39;10.57;;;4.70;;
18449;SDS011;9354;50.194;7.690;2022-12-07T09:14:07;10.10;;;4.63;;
18449;SDS011;9354;50.194;7.690;2022-12-07T09:16:35;13.73;;;4.93;;
18449;SDS011;9354;50.194;7.690;2022-12-07T09:19:02;10.30;;;5.00;;
18449;SDS011;9354;50.194;7.690;2022-12-07T09:21:30;11.73;;;4.93;;
18449;SDS011;9354;50.194;7.690;2022-12-07T09:23:57;13.97;;;5.53;;
18449;SDS011;9354;50.194;7.690;2022-12-07T09:26:26;11.07;;;5.00;;
18449;SDS011;9354;50.194;7.690;2022-12-07T09:28:53;20.70;;;6.60;;
18449;SDS011;9354;50.194;7.690;2022-12-07T09:31:21;10.70;;;4.90;;
18449;SDS011;9354;50.194;7.690;2022-12-07T09:33:52;9.33;;;4.57;;
18449;SDS011;9354;50.194;7.690;2022-12-07T09:36:20;9.47;;;5.07;;
18449;SDS011;9354;50.194;7.690;2022-12-07T09:38:47;10.13;;;5.10;;
18449;SDS011;9354;50.194;7.690;2022-12-07T09:41:15;10.67;;;4.63;;
18449;SDS011;9354;50.194;7.690;2022-12-07T09:43:43;10.67;;;5.33;;
18449;SDS011;9354;50.194;7.690;2022-12-07T09:46:13;10.80;;;4.63;;
18449;SDS011;9354;50.194;7.690;2022-12-07T09:48:43;10.47;;;4.90;;
18449;SDS011;9354;50.194;7.690;2022-12-07T09:51:14;7.13;;;3.57;;
18449;SDS011;9354;50.194;7.690;2022-12-07T09:53:44;9.60;;;3.90;;
18449;SDS011;9354;50.194;7.690;2022-12-07T09:56:13;10.17;;;4.47;;
18449;SDS011;9354;50.194;7.690;2022-12-07T09:58:43;15.57;;;4.23;;
18449;SDS011;9354;50.194;7.690;2022-12-07T10:01:12;9.53;;;4.43;;
18449;SDS011;9354;50.194;7.690;2022-12-07T10:03:42;8.30;;;4.03;;
18449;SDS011;9354;50.194;7.690;2022-12-07T10:06:15;8.93;;;3.80;;
18449;SDS011;9354;50.194;7.690;2022-12-07T10:08:42;11.10;;;4.27;;
18449;SDS011;9354;50.194;7.690;2022-12-07T10:11:10;12.67;;;3.97;;
18449;SDS011;9354;50.194;7.690;2022-12-07T10:13:40;10.93;;;3.63;;
18449;SDS011;9354;50.194;7.690;2022-12-07T10:16:26;10.67;;;4.37;;
18449;SDS011;9354;50.194;7.690;2022-12-07T10:19:20;14.77;;;4.03;;
18449;SDS011;9354;50.194;7.690;2022-12-07T10:22:00;11.70;;;4.30;;
18449;SDS011;9354;50.194;7.690;2022-12-07T10:24:29;8.57;;;3.63;;
18449;SDS011;9354;50.194;7.690;2022-12-07T10:26:57;9.27;;;4.10;;
18449;SDS011;9354;50.194;7.690;2022-12-07T10:29:28;11.20;;;3.80;;
18449;SDS011;9354;50.194;7.690;2022-12-07T10:31:58;11.67;;;4.37;;
18449;SDS011;9354;50.194;7.690;2022-12-07T10:34:29;12.33;;;4.60;;
18449;SDS011;9354;50.194;7.690;2022-12-07T10:37:07;11.43;;;4.60;;
18449;SDS011;9354;50.194;7.690;2022-12-07T10:39:42;11.20;;;5.53;;
18449;SDS011;9354;50.194;7.690;2022-12-07T10:42:17;22.63;;;8.23;;
18449;SDS011;9354;50.194;7.690;2022-12-07T10:44:46;21.33;;;6.53;;
18449;SDS011;9354;50.194;7.690;2022-12-07T10:50:11;8.23;;;4.00;;
18449;SDS011;9354;50.194;7.690;2022-12-07T10:52:59;7.63;;;3.70;;
18449;SDS011;9354;50.194;7.690;2022-12-07T10:55:45;13.87;;;3.90;;
18449;SDS011;9354;50.194;7.690;2022-12-07T10:58:29;10.80;;;3.20;;
18449;SDS011;9354;50.194;7.690;2022-12-07T11:01:04;7.23;;;2.80;;
18449;SDS011;9354;50.194;7.690;2022-12-07T11:06:43;9.57;;;2.87;;
18449;SDS011;9354;50.194;7.690;2022-12-07T11:09:28;6.33;;;2.83;;
18449;SDS011;9354;50.194;7.690;2022-12-07T11:12:10;7.80;;;2.83;;
18449;SDS011;9354;50.194;7.690;2022-12-07T11:14:48;4.77;;;2.40;;
18449;SDS011;9354;50.194;7.690;2022-12-07T11:17:24;8.37;;;2.93;;
18449;SDS011;9354;50.194;7.690;2022-12-07T11:20:05;6.33;;;2.80;;
18449;SDS011;9354;50.194;7.690;2022-12-07T11:22:46;8.30;;;4.03;;
18449;SDS011;9354;50.194;7.690;2022-12-07T11:25:22;11.23;;;3.60;;
18449;SDS011;9354;50.194;7.690;2022-12-07T11:28:01;9.80;;;3.83;;
18449;SDS011;9354;50.194;7.690;2022-12-07T11:30:41;8.10;;;2.83;;
18449;SDS011;9354;50.194;7.690;2022-12-07T11:33:15;9.57;;;3.43;;
18449;SDS011;9354;50.194;7.690;2022-12-07T11:35:49;8.97;;;2.90;;
18449;SDS011;9354;50.194;7.690;2022-12-07T11:38:26;7.27;;;2.40;;
18449;SDS011;9354;50.194;7.690;2022-12-07T11:41:03;8.00;;;3.17;;
18449;SDS011;9354;50.194;7.690;2022-12-07T11:43:42;18.20;;;6.43;;
18449;SDS011;9354;50.194;7.690;2022-12-07T11:46:42;15.93;;;5.60;;
18449;SDS011;9354;50.194;7.690;2022-12-07T11:49:14;13.47;;;5.07;;
18449;SDS011;9354;50.194;7.690;2022-12-07T11:51:50;10.70;;;3.43;;
18449;SDS011;9354;50.194;7.690;2022-12-07T11:54:21;8.93;;;3.20;;
18449;SDS011;9354;50.194;7.690;2022-12-07T11:56:52;5.77;;;2.90;;
18449;SDS011;9354;50.194;7.690;2022-12-07T11:59:23;11.33;;;3.03;;
18449;SDS011;9354;50.194;7.690;2022-12-07T12:01:58;6.47;;;2.30;;
18449;SDS011;9354;50.194;7.690;2022-12-07T12:04:39;6.37;;;2.60;;
18449;SDS011;9354;50.194;7.690;2022-12-07T12:07:19;6.60;;;2.50;;
18449;SDS011;9354;50.194;7.690;2022-12-07T12:09:49;9.23;;;3.10;;
18449;SDS011;9354;50.194;7.690;2022-12-07T12:12:24;7.53;;;2.57;;
18449;SDS011;9354;50.194;7.690;2022-12-07T12:15:23;10.47;;;2.33;;
18449;SDS011;9354;50.194;7.690;2022-12-07T12:20:51;6.87;;;2.33;;
18449;SDS011;9354;50.194;7.690;2022-12-07T12:23:24;8.47;;;2.37;;
18449;SDS011;9354;50.194;7.690;2022-12-07T12:26:01;5.00;;;1.90;;
18449;SDS011;9354;50.194;7.690;2022-12-07T12:28:30;4.90;;;1.60;;
18449;SDS011;9354;50.194;7.690;2022-12-07T12:31:05;3.20;;;1.90;;
18449;SDS011;9354;50.194;7.690;2022-12-07T12:33:38;7.43;;;1.97;;
18449;SDS011;9354;50.194;7.690;2022-12-07T12:36:18;2.80;;;1.33;;
18449;SDS011;9354;50.194;7.690;2022-12-07T12:39:07;8.07;;;2.00;;
18449;SDS011;9354;50.194;7.690;2022-12-07T12:41:54;5.87;;;1.53;;
18449;SDS011;9354;50.194;7.690;2022-12-07T12:44:41;11.37;;;2.63;;
18449;SDS011;9354;50.194;7.690;2022-12-07T12:47:39;5.50;;;1.50;;
18449;SDS011;9354;50.194;7.690;2022-12-07T12:50:23;10.80;;;4.43;;
18449;SDS011;9354;50.194;7.690;2022-12-07T12:53:02;5.17;;;1.77;;
18449;SDS011;9354;50.194;7.690;2022-12-07T12:55:53;4.37;;;1.67;;
18449;SDS011;9354;50.194;7.690;2022-12-07T12:58:41;4.37;;;1.70;;
18449;SDS011;9354;50.194;7.690;2022-12-07T13:04:17;4.67;;;1.87;;
18449;SDS011;9354;50.194;7.690;2022-12-07T13:06:51;4.27;;;2.10;;
18449;SDS011;9354;50.194;7.690;2022-12-07T13:09:20;13.17;;;2.50;;
18449;SDS011;9354;50.194;7.690;2022-12-07T13:11:54;8.27;;;1.87;;
18449;SDS011;9354;50.194;7.690;2022-12-07T13:14:40;9.83;;;2.10;;
18449;SDS011;9354;50.194;7.690;2022-12-07T13:17:10;7.77;;;1.97;;
18449;SDS011;9354;50.194;7.690;2022-12-07T13:22:35;6.90;;;3.00;;
18449;SDS011;9354;50.194;7.690;2022-12-07T13:25:21;5.50;;;1.70;;
18449;SDS011;9354;50.194;7.690;2022-12-07T13:28:09;5.47;;;1.87;;
18449;SDS011;9354;50.194;7.690;2022-12-07T13:30:43;6.27;;;1.93;;
18449;SDS011;9354;50.194;7.690;2022-12-07T13:33:14;3.47;;;1.50;;
18449;SDS011;9354;50.194;7.690;2022-12-07T13:35:43;8.13;;;1.50;;
18449;SDS011;9354;50.194;7.690;2022-12-07T13:38:16;5.83;;;2.20;;
18449;SDS011;9354;50.194;7.690;2022-12-07T13:40:59;8.60;;;2.60;;
18449;SDS011;9354;50.194;7.690;2022-12-07T13:43:29;4.73;;;2.03;;
18449;SDS011;9354;50.194;7.690;2022-12-07T13:45:56;6.23;;;2.00;;
18449;SDS011;9354;50.194;7.690;2022-12-07T13:48:28;5.07;;;1.53;;
18449;SDS011;9354;50.194;7.690;2022-12-07T13:50:59;8.43;;;2.20;;
18449;SDS011;9354;50.194;7.690;2022-12-07T13:53:28;4.47;;;1.50;;
18449;SDS011;9354;50.194;7.690;2022-12-07T13:55:56;4.10;;;1.60;;
18449;SDS011;9354;50.194;7.690;2022-12-07T13:58:25;6.23;;;2.40;;
18449;SDS011;9354;50.194;7.690;2022-12-07T14:00:57;11.77;;;2.03;;
18449;SDS011;9354;50.194;7.690;2022-12-07T14:03:27;5.30;;;1.87;;
18449;SDS011;9354;50.194;7.690;2022-12-07T14:06:04;7.77;;;1.80;;
18449;SDS011;9354;50.194;7.690;2022-12-07T14:08:34;1.53;;;0.93;;
18449;SDS011;9354;50.194;7.690;2022-12-07T14:11:01;3.77;;;1.83;;
18449;SDS011;9354;50.194;7.690;2022-12-07T14:13:32;3.23;;;1.10;;
18449;SDS011;9354;50.194;7.690;2022-12-07T14:16:01;4.40;;;1.77;;
18449;SDS011;9354;50.194;7.690;2022-12-07T14:18:29;3.40;;;1.03;;
18449;SDS011;9354;50.194;7.690;2022-12-07T14:21:03;3.37;;;0.90;;
18449;SDS011;9354;50.194;7.690;2022-12-07T14:23:31;2.57;;;1.00;;
18449;SDS011;9354;50.194;7.690;2022-12-07T14:26:05;3.97;;;1.00;;
18449;SDS011;9354;50.194;7.690;2022-12-07T14:28:40;3.33;;;1.10;;
18449;SDS011;9354;50.194;7.690;2022-12-07T14:31:10;5.23;;;1.10;;
18449;SDS011;9354;50.194;7.690;2022-12-07T14:33:39;2.47;;;1.20;;
18449;SDS011;9354;50.194;7.690;2022-12-07T14:36:08;4.70;;;1.70;;
18449;SDS011;9354;50.194;7.690;2022-12-07T14:38:35;2.70;;;1.30;;
18449;SDS011;9354;50.194;7.690;2022-12-07T14:41:03;7.00;;;1.10;;
18449;SDS011;9354;50.194;7.690;2022-12-07T14:43:50;6.00;;;1.03;;
18449;SDS011;9354;50.194;7.690;2022-12-07T14:46:17;2.07;;;1.10;;
18449;SDS011;9354;50.194;7.690;2022-12-07T14:48:44;4.67;;;1.60;;
18449;SDS011;9354;50.194;7.690;2022-12-07T14:51:12;6.30;;;1.70;;
18449;SDS011;9354;50.194;7.690;2022-12-07T14:53:40;5.13;;;1.70;;
18449;SDS011;9354;50.194;7.690;2022-12-07T14:56:09;6.97;;;1.80;;
18449;SDS011;9354;50.194;7.690;2022-12-07T14:58:36;8.97;;;1.77;;
18449;SDS011;9354;50.194;7.690;2022-12-07T15:01:05;7.33;;;1.50;;
18449;SDS011;9354;50.194;7.690;2022-12-07T15:03:32;4.57;;;1.20;;
18449;SDS011;9354;50.194;7.690;2022-12-07T15:06:03;6.97;;;1.23;;
18449;SDS011;9354;50.194;7.690;2022-12-07T15:08:30;6.67;;;1.57;;
18449;SDS011;9354;50.194;7.690;2022-12-07T15:10:58;3.53;;;1.07;;
18449;SDS011;9354;50.194;7.690;2022-12-07T15:13:25;6.83;;;1.40;;
18449;SDS011;9354;50.194;7.690;2022-12-07T15:16:13;5.03;;;1.40;;
18449;SDS011;9354;50.194;7.690;2022-12-07T15:18:43;10.47;;;3.20;;
18449;SDS011;9354;50.194;7.690;2022-12-07T15:21:11;7.70;;;2.60;;
18449;SDS011;9354;50.194;7.690;2022-12-07T15:23:42;7.53;;;2.70;;
18449;SDS011;9354;50.194;7.690;2022-12-07T15:26:09;8.13;;;2.40;;
18449;SDS011;9354;50.194;7.690;2022-12-07T15:28:37;8.53;;;3.40;;
18449;SDS011;9354;50.194;7.690;2022-12-07T15:31:10;12.43;;;3.70;;
18449;SDS011;9354;50.194;7.690;2022-12-07T15:33:39;15.13;;;4.53;;